sensor_id;sensor_type;location;lat;lon;timestamp;pressure;altitude;pressure_sealevel;temperature;humidity
61710;BME280;47633;51.494;5.386;2023-03-14T00:00:47;98904.13;;;19.21;45.40
61710;BME280;47633;51.494;5.386;2023-03-14T00:03:12;98887.47;;;19.21;45.38
61710;BME280;47633;51.494;5.386;2023-03-14T00:05:38;98891.28;;;19.18;45.26
61710;BME280;47633;51.494;5.386;2023-03-14T00:08:03;98894.94;;;19.17;44.99
61710;BME280;47633;51.494;5.386;2023-03-14T00:10:28;98890.44;;;19.18;45.03
61710;BME280;47633;51.494;5.386;2023-03-14T00:12:54;98895.72;;;19.18;44.88
61710;BME280;47633;51.494;5.386;2023-03-14T00:15:19;98899.56;;;19.15;44.76
61710;BME280;47633;51.494;5.386;2023-03-14T00:17:44;98900.56;;;19.14;44.59
61710;BME280;47633;51.494;5.386;2023-03-14T00:20:10;98906.03;;;19.13;44.77
61710;BME280;47633;51.494;5.386;2023-03-14T00:22:37;98914.75;;;19.13;44.58
61710;BME280;47633;51.494;5.386;2023-03-14T00:25:05;98914.13;;;19.11;44.54
61710;BME280;47633;51.494;5.386;2023-03-14T00:27:31;98921.41;;;19.09;44.45
61710;BME280;47633;51.494;5.386;2023-03-14T00:29:56;98922.22;;;19.10;44.37
61710;BME280;47633;51.494;5.386;2023-03-14T00:32:22;98928.66;;;19.07;44.25
61710;BME280;47633;51.494;5.386;2023-03-14T00:34:47;98937.25;;;19.09;44.22
61710;BME280;47633;51.494;5.386;2023-03-14T00:37:13;98930.47;;;19.07;44.20
61710;BME280;47633;51.494;5.386;2023-03-14T00:39:38;98926.38;;;19.04;44.01
61710;BME280;47633;51.494;5.386;2023-03-14T00:42:03;98925.38;;;19.05;43.92
61710;BME280;47633;51.494;5.386;2023-03-14T00:44:28;98922.91;;;19.03;43.93
61710;BME280;47633;51.494;5.386;2023-03-14T00:46:54;98929.84;;;19.05;43.93
61710;BME280;47633;51.494;5.386;2023-03-14T00:49:19;98938.75;;;19.03;43.94
61710;BME280;47633;51.494;5.386;2023-03-14T00:51:45;98925.81;;;18.94;43.81
61710;BME280;47633;51.494;5.386;2023-03-14T00:54:10;98935.66;;;19.00;44.05
61710;BME280;47633;51.494;5.386;2023-03-14T00:56:35;98931.19;;;19.00;44.05
61710;BME280;47633;51.494;5.386;2023-03-14T00:59:00;98929.38;;;19.01;43.78
61710;BME280;47633;51.494;5.386;2023-03-14T01:01:26;98920.97;;;18.97;43.93
61710;BME280;47633;51.494;5.386;2023-03-14T01:03:53;98915.69;;;18.97;43.88
61710;BME280;47633;51.494;5.386;2023-03-14T01:06:24;98920.16;;;18.97;43.56
61710;BME280;47633;51.494;5.386;2023-03-14T01:08:50;98926.25;;;18.97;43.84
61710;BME280;47633;51.494;5.386;2023-03-14T01:11:19;98920.53;;;18.94;43.74
61710;BME280;47633;51.494;5.386;2023-03-14T01:13:45;98923.97;;;18.94;43.65
61710;BME280;47633;51.494;5.386;2023-03-14T01:16:12;98914.94;;;18.89;43.59
61710;BME280;47633;51.494;5.386;2023-03-14T01:18:39;98915.41;;;18.92;43.56
61710;BME280;47633;51.494;5.386;2023-03-14T01:23:43;98911.97;;;18.92;43.73
61710;BME280;47633;51.494;5.386;2023-03-14T01:26:10;98916.22;;;18.93;43.66
61710;BME280;47633;51.494;5.386;2023-03-14T01:28:35;98908.66;;;18.90;43.77
61710;BME280;47633;51.494;5.386;2023-03-14T01:31:09;98907.03;;;18.89;43.29
61710;BME280;47633;51.494;5.386;2023-03-14T01:33:35;98909.69;;;18.89;43.25
61710;BME280;47633;51.494;5.386;2023-03-14T01:36:00;98904.22;;;18.90;43.48
61710;BME280;47633;51.494;5.386;2023-03-14T01:38:30;98901.75;;;18.89;43.38
61710;BME280;47633;51.494;5.386;2023-03-14T01:40:56;98889.53;;;18.88;43.43
61710;BME280;47633;51.494;5.386;2023-03-14T01:43:21;98886.91;;;18.88;43.28
61710;BME280;47633;51.494;5.386;2023-03-14T01:46:57;98885.91;;;18.89;43.42
61710;BME280;47633;51.494;5.386;2023-03-14T01:49:18;98878.19;;;18.87;43.42
61710;BME280;47633;51.494;5.386;2023-03-14T01:51:56;98876.34;;;18.88;43.25
61710;BME280;47633;51.494;5.386;2023-03-14T01:54:47;98868.44;;;18.88;43.30
61710;BME280;47633;51.494;5.386;2023-03-14T01:57:35;98865.78;;;18.88;43.43
61710;BME280;47633;51.494;5.386;2023-03-14T02:00:22;98864.50;;;18.83;43.21
61710;BME280;47633;51.494;5.386;2023-03-14T02:02:49;98876.69;;;18.84;43.36
61710;BME280;47633;51.494;5.386;2023-03-14T02:05:18;98866.47;;;18.81;43.25
61710;BME280;47633;51.494;5.386;2023-03-14T02:07:54;98863.81;;;18.81;43.33
61710;BME280;47633;51.494;5.386;2023-03-14T02:10:23;98857.75;;;18.81;43.12
61710;BME280;47633;51.494;5.386;2023-03-14T02:12:50;98862.38;;;18.79;43.19
61710;BME280;47633;51.494;5.386;2023-03-14T02:15:18;98857.09;;;18.79;43.25
61710;BME280;47633;51.494;5.386;2023-03-14T02:17:44;98864.19;;;18.78;43.34
61710;BME280;47633;51.494;5.386;2023-03-14T02:22:51;98859.06;;;18.77;43.20
61710;BME280;47633;51.494;5.386;2023-03-14T02:25:22;98864.00;;;18.80;43.26
61710;BME280;47633;51.494;5.386;2023-03-14T02:27:52;98865.38;;;18.76;43.29
61710;BME280;47633;51.494;5.386;2023-03-14T02:30:20;98857.47;;;18.76;43.15
61710;BME280;47633;51.494;5.386;2023-03-14T02:32:48;98851.34;;;18.75;43.10
61710;BME280;47633;51.494;5.386;2023-03-14T02:35:23;98841.13;;;18.72;43.33
61710;BME280;47633;51.494;5.386;2023-03-14T02:37:57;98836.53;;;18.74;43.12
61710;BME280;47633;51.494;5.386;2023-03-14T02:40:25;98838.97;;;18.76;43.31
61710;BME280;47633;51.494;5.386;2023-03-14T02:42:50;98837.50;;;18.73;43.18
61710;BME280;47633;51.494;5.386;2023-03-14T02:47:44;98835.03;;;18.72;43.11
61710;BME280;47633;51.494;5.386;2023-03-14T02:50:23;98827.31;;;18.70;43.48
61710;BME280;47633;51.494;5.386;2023-03-14T02:52:50;98837.50;;;18.73;43.18
61710;BME280;47633;51.494;5.386;2023-03-14T02:55:20;98841.47;;;18.69;43.37
61710;BME280;47633;51.494;5.386;2023-03-14T02:57:45;98839.34;;;18.73;43.26
61710;BME280;47633;51.494;5.386;2023-03-14T03:00:11;98836.22;;;18.69;43.12
61710;BME280;47633;51.494;5.386;2023-03-14T03:02:36;98841.47;;;18.69;43.31
61710;BME280;47633;51.494;5.386;2023-03-14T03:05:01;98846.75;;;18.69;43.31
61710;BME280;47633;51.494;5.386;2023-03-14T03:07:27;98843.31;;;18.68;43.35
61710;BME280;47633;51.494;5.386;2023-03-14T03:09:52;98848.59;;;18.68;43.27
61710;BME280;47633;51.494;5.386;2023-03-14T03:12:17;98853.69;;;18.70;43.26
61710;BME280;47633;51.494;5.386;2023-03-14T03:14:45;98853.41;;;18.65;43.17
61710;BME280;47633;51.494;5.386;2023-03-14T03:17:10;98848.94;;;18.65;43.09
61710;BME280;47633;51.494;5.386;2023-03-14T03:19:35;98849.78;;;18.66;43.24
61710;BME280;47633;51.494;5.386;2023-03-14T03:22:01;98849.41;;;18.69;43.18
61710;BME280;47633;51.494;5.386;2023-03-14T03:24:26;98835.91;;;18.64;43.39
61710;BME280;47633;51.494;5.386;2023-03-14T03:26:52;98836.59;;;18.66;43.40
61710;BME280;47633;51.494;5.386;2023-03-14T03:29:17;98828.00;;;18.64;43.15
61710;BME280;47633;51.494;5.386;2023-03-14T03:31:42;98842.69;;;18.66;43.25
61710;BME280;47633;51.494;5.386;2023-03-14T03:34:11;98827.19;;;18.63;43.41
61710;BME280;47633;51.494;5.386;2023-03-14T03:36:36;98832.47;;;18.63;43.13
61710;BME280;47633;51.494;5.386;2023-03-14T03:39:01;98835.75;;;18.65;43.14
61710;BME280;47633;51.494;5.386;2023-03-14T03:41:27;98835.91;;;18.64;43.08
61710;BME280;47633;51.494;5.386;2023-03-14T03:43:52;98829.19;;;18.61;43.16
61710;BME280;47633;51.494;5.386;2023-03-14T03:46:19;98824.91;;;18.60;43.31
61710;BME280;47633;51.494;5.386;2023-03-14T03:48:44;98827.38;;;18.62;43.19
61710;BME280;47633;51.494;5.386;2023-03-14T03:51:14;98817.34;;;18.57;43.35
61710;BME280;47633;51.494;5.386;2023-03-14T03:53:40;98824.38;;;18.65;43.14
61710;BME280;47633;51.494;5.386;2023-03-14T03:56:06;98829.66;;;18.65;43.28
61710;BME280;47633;51.494;5.386;2023-03-14T03:58:31;98812.19;;;18.64;43.27
61710;BME280;47633;51.494;5.386;2023-03-14T04:00:57;98820.94;;;18.64;43.10
61710;BME280;47633;51.494;5.386;2023-03-14T04:03:22;98819.09;;;18.65;43.10
61710;BME280;47633;51.494;5.386;2023-03-14T04:05:58;98815.00;;;18.62;43.23
61710;BME280;47633;51.494;5.386;2023-03-14T04:08:24;98806.25;;;18.62;43.24
61710;BME280;47633;51.494;5.386;2023-03-14T04:10:49;98821.75;;;18.65;43.38
61710;BME280;47633;51.494;5.386;2023-03-14T04:13:14;98813.84;;;18.65;43.19
61710;BME280;47633;51.494;5.386;2023-03-14T04:15:39;98814.00;;;18.63;43.25
61710;BME280;47633;51.494;5.386;2023-03-14T04:18:05;98808.91;;;18.62;43.15
61710;BME280;47633;51.494;5.386;2023-03-14T04:20:30;98809.72;;;18.62;43.08
61710;BME280;47633;51.494;5.386;2023-03-14T04:22:55;98810.72;;;18.61;43.35
61710;BME280;47633;51.494;5.386;2023-03-14T04:25:20;98806.78;;;18.57;43.29
61710;BME280;47633;51.494;5.386;2023-03-14T04:27:47;98810.91;;;18.60;43.30
61710;BME280;47633;51.494;5.386;2023-03-14T04:30:12;98810.06;;;18.59;43.07
61710;BME280;47633;51.494;5.386;2023-03-14T04:32:39;98812.53;;;18.61;43.21
61710;BME280;47633;51.494;5.386;2023-03-14T04:35:05;98818.66;;;18.61;43.26
61710;BME280;47633;51.494;5.386;2023-03-14T04:37:30;98803.16;;;18.58;43.35
61710;BME280;47633;51.494;5.386;2023-03-14T04:39:55;98807.44;;;18.59;43.43
61710;BME280;47633;51.494;5.386;2023-03-14T04:42:21;98793.59;;;18.57;43.17
61710;BME280;47633;51.494;5.386;2023-03-14T04:44:46;98806.97;;;18.56;43.39
61710;BME280;47633;51.494;5.386;2023-03-14T04:47:14;98789.50;;;18.55;43.25
61710;BME280;47633;51.494;5.386;2023-03-14T04:49:39;98809.44;;;18.57;43.47
61710;BME280;47633;51.494;5.386;2023-03-14T04:52:05;98805.97;;;18.57;43.41
61710;BME280;47633;51.494;5.386;2023-03-14T04:54:30;98806.97;;;18.56;43.48
61710;BME280;47633;51.494;5.386;2023-03-14T04:56:55;98810.41;;;18.56;43.60
61710;BME280;47633;51.494;5.386;2023-03-14T04:59:21;98807.78;;;18.56;43.53
61710;BME280;47633;51.494;5.386;2023-03-14T05:01:46;98810.78;;;18.53;43.59
61710;BME280;47633;51.494;5.386;2023-03-14T05:04:13;98808.13;;;18.53;43.93
61710;BME280;47633;51.494;5.386;2023-03-14T05:06:39;98808.97;;;18.54;43.84
61710;BME280;47633;51.494;5.386;2023-03-14T05:09:04;98808.13;;;18.53;43.83
61710;BME280;47633;51.494;5.386;2023-03-14T05:11:30;98798.78;;;18.51;43.98
61710;BME280;47633;51.494;5.386;2023-03-14T05:13:55;98802.03;;;18.53;43.97
61710;BME280;47633;51.494;5.386;2023-03-14T05:16:20;98801.06;;;18.54;44.08
61710;BME280;47633;51.494;5.386;2023-03-14T05:18:46;98801.22;;;18.52;44.12
61710;BME280;47633;51.494;5.386;2023-03-14T05:21:11;98806.88;;;18.49;44.00
61710;BME280;47633;51.494;5.386;2023-03-14T05:23:36;98805.66;;;18.52;44.01
61710;BME280;47633;51.494;5.386;2023-03-14T05:26:02;98803.03;;;18.52;44.05
61710;BME280;47633;51.494;5.386;2023-03-14T05:28:27;98803.41;;;18.48;43.96
61710;BME280;47633;51.494;5.386;2023-03-14T05:30:53;98791.84;;;18.49;43.93
61710;BME280;47633;51.494;5.386;2023-03-14T05:33:18;98786.56;;;18.49;44.13
61710;BME280;47633;51.494;5.386;2023-03-14T05:35:44;98790.84;;;18.51;44.26
61710;BME280;47633;51.494;5.386;2023-03-14T05:38:09;98787.22;;;18.52;44.11
61710;BME280;47633;51.494;5.386;2023-03-14T05:40:34;98791.22;;;18.47;44.10
61710;BME280;47633;51.494;5.386;2023-03-14T05:43:00;98782.94;;;18.51;44.20
61710;BME280;47633;51.494;5.386;2023-03-14T05:45:25;98788.22;;;18.51;44.21
61710;BME280;47633;51.494;5.386;2023-03-14T05:47:50;98785.59;;;18.51;44.29
61710;BME280;47633;51.494;5.386;2023-03-14T05:50:16;98778.66;;;18.49;44.33
61710;BME280;47633;51.494;5.386;2023-03-14T05:52:41;98774.56;;;18.47;44.33
61710;BME280;47633;51.494;5.386;2023-03-14T05:55:06;98773.38;;;18.49;44.30
61710;BME280;47633;51.494;5.386;2023-03-14T05:57:32;98777.84;;;18.49;44.34
61710;BME280;47633;51.494;5.386;2023-03-14T05:59:57;98778.84;;;18.48;44.60
61710;BME280;47633;51.494;5.386;2023-03-14T06:02:22;98770.91;;;18.48;44.40
61710;BME280;47633;51.494;5.386;2023-03-14T06:04:48;98765.66;;;18.48;44.57
61710;BME280;47633;51.494;5.386;2023-03-14T06:07:13;98774.41;;;18.48;44.37
61710;BME280;47633;51.494;5.386;2023-03-14T06:09:38;98767.66;;;18.46;44.38
61710;BME280;47633;51.494;5.386;2023-03-14T06:12:05;98761.38;;;18.47;44.38
61710;BME280;47633;51.494;5.386;2023-03-14T06:14:32;98770.28;;;18.46;44.35
61710;BME280;47633;51.494;5.386;2023-03-14T06:16:57;98770.13;;;18.47;44.30
61710;BME280;47633;51.494;5.386;2023-03-14T06:19:24;98777.03;;;18.48;44.43
61710;BME280;47633;51.494;5.386;2023-03-14T06:21:50;98771.75;;;18.48;44.56
61710;BME280;47633;51.494;5.386;2023-03-14T06:24:15;98771.59;;;18.50;44.67
61710;BME280;47633;51.494;5.386;2023-03-14T06:26:40;98768.09;;;18.49;44.45
61710;BME280;47633;51.494;5.386;2023-03-14T06:29:06;98777.31;;;18.54;44.70
61710;BME280;47633;51.494;5.386;2023-03-14T06:31:31;98772.69;;;18.56;44.65
61710;BME280;47633;51.494;5.386;2023-03-14T06:33:57;98782.06;;;18.58;44.79
61710;BME280;47633;51.494;5.386;2023-03-14T06:36:23;98769.50;;;18.60;44.69
61710;BME280;47633;51.494;5.386;2023-03-14T06:38:49;98766.25;;;18.58;44.61
61710;BME280;47633;51.494;5.386;2023-03-14T06:41:14;98774.59;;;18.62;44.80
61710;BME280;47633;51.494;5.386;2023-03-14T06:43:39;98779.34;;;18.66;44.66
61710;BME280;47633;51.494;5.386;2023-03-14T06:46:05;98792.19;;;18.70;44.73
61710;BME280;47633;51.494;5.386;2023-03-14T06:48:30;98787.72;;;18.70;44.79
61710;BME280;47633;51.494;5.386;2023-03-14T06:50:55;98777.81;;;18.72;44.63
61710;BME280;47633;51.494;5.386;2023-03-14T06:53:20;98788.84;;;18.76;44.72
61710;BME280;47633;51.494;5.386;2023-03-14T06:55:46;98793.09;;;18.77;44.60
61710;BME280;47633;51.494;5.386;2023-03-14T06:58:11;98783.38;;;18.77;44.96
61710;BME280;47633;51.494;5.386;2023-03-14T07:00:37;98801.34;;;18.82;44.79
61710;BME280;47633;51.494;5.386;2023-03-14T07:03:02;98796.72;;;18.84;44.68
61710;BME280;47633;51.494;5.386;2023-03-14T07:05:27;98801.16;;;18.83;44.54
61710;BME280;47633;51.494;5.386;2023-03-14T07:07:53;98798.38;;;18.85;44.61
61710;BME280;47633;51.494;5.386;2023-03-14T07:10:18;98799.19;;;18.85;44.68
61710;BME280;47633;51.494;5.386;2023-03-14T07:12:44;98802.44;;;18.88;44.92
61710;BME280;47633;51.494;5.386;2023-03-14T07:15:09;98800.31;;;18.83;44.76
61710;BME280;47633;51.494;5.386;2023-03-14T07:17:35;98816.09;;;18.91;44.74
61710;BME280;47633;51.494;5.386;2023-03-14T07:20:00;98819.59;;;18.92;45.08
61710;BME280;47633;51.494;5.386;2023-03-14T07:22:26;98832.13;;;18.90;45.13
61710;BME280;47633;51.494;5.386;2023-03-14T07:24:51;98834.94;;;18.88;45.22
61710;BME280;47633;51.494;5.386;2023-03-14T07:27:16;98855.50;;;18.93;45.37
61710;BME280;47633;51.494;5.386;2023-03-14T07:29:42;98888.03;;;18.93;45.69
61710;BME280;47633;51.494;5.386;2023-03-14T07:32:07;98917.88;;;18.94;45.54
61710;BME280;47633;51.494;5.386;2023-03-14T07:34:33;98943.28;;;18.95;45.52
61710;BME280;47633;51.494;5.386;2023-03-14T07:36:58;98934.06;;;18.91;45.52
61710;BME280;47633;51.494;5.386;2023-03-14T07:39:23;98959.31;;;18.93;45.81
61710;BME280;47633;51.494;5.386;2023-03-14T07:41:49;98969.69;;;18.95;46.01
61710;BME280;47633;51.494;5.386;2023-03-14T07:44:14;98975.94;;;18.94;45.69
61710;BME280;47633;51.494;5.386;2023-03-14T07:46:39;98988.97;;;18.95;45.81
61710;BME280;47633;51.494;5.386;2023-03-14T07:49:04;98993.44;;;18.95;45.82
61710;BME280;47633;51.494;5.386;2023-03-14T07:51:30;99004.81;;;18.95;45.85
61710;BME280;47633;51.494;5.386;2023-03-14T07:53:55;99013.53;;;18.96;45.92
61710;BME280;47633;51.494;5.386;2023-03-14T07:56:20;99023.75;;;18.99;45.95
61710;BME280;47633;51.494;5.386;2023-03-14T07:58:46;99028.41;;;18.97;45.99
61710;BME280;47633;51.494;5.386;2023-03-14T08:01:11;99033.34;;;19.00;45.91
61710;BME280;47633;51.494;5.386;2023-03-14T08:03:36;99045.72;;;18.99;45.78
61710;BME280;47633;51.494;5.386;2023-03-14T08:06:02;99053.81;;;18.98;45.94
61710;BME280;47633;51.494;5.386;2023-03-14T08:08:27;99055.44;;;18.99;45.67
61710;BME280;47633;51.494;5.386;2023-03-14T08:10:52;99059.91;;;18.98;45.85
61710;BME280;47633;51.494;5.386;2023-03-14T08:13:18;99060.41;;;18.94;45.72
61710;BME280;47633;51.494;5.386;2023-03-14T08:15:47;99081.84;;;18.99;45.58
61710;BME280;47633;51.494;5.386;2023-03-14T08:18:13;99081.38;;;18.95;45.63
61710;BME280;47633;51.494;5.386;2023-03-14T08:20:38;99093.75;;;18.95;45.57
61710;BME280;47633;51.494;5.386;2023-03-14T08:23:04;99109.59;;;18.95;45.50
61710;BME280;47633;51.494;5.386;2023-03-14T08:25:29;99120.97;;;18.95;45.34
61710;BME280;47633;51.494;5.386;2023-03-14T08:27:54;99137.44;;;18.97;45.22
61710;BME280;47633;51.494;5.386;2023-03-14T08:30:21;99136.16;;;18.93;45.57
61710;BME280;47633;51.494;5.386;2023-03-14T08:32:47;99146.88;;;18.92;45.03
61710;BME280;47633;51.494;5.386;2023-03-14T08:35:13;99143.41;;;18.91;45.06
61710;BME280;47633;51.494;5.386;2023-03-14T08:37:38;99153.97;;;18.91;44.93
61710;BME280;47633;51.494;5.386;2023-03-14T08:40:05;99171.47;;;18.92;45.01
61710;BME280;47633;51.494;5.386;2023-03-14T08:42:37;99169.66;;;18.84;44.82
61710;BME280;47633;51.494;5.386;2023-03-14T08:45:03;99185.81;;;18.90;44.88
61710;BME280;47633;51.494;5.386;2023-03-14T08:47:29;99195.38;;;18.91;44.84
61710;BME280;47633;51.494;5.386;2023-03-14T08:49:54;99203.31;;;18.91;44.86
61710;BME280;47633;51.494;5.386;2023-03-14T08:52:19;99208.75;;;18.89;44.61
61710;BME280;47633;51.494;5.386;2023-03-14T08:54:45;99221.13;;;18.89;44.81
61710;BME280;47633;51.494;5.386;2023-03-14T08:57:10;99226.25;;;18.90;44.63
61710;BME280;47633;51.494;5.386;2023-03-14T08:59:36;99231.69;;;18.89;44.87
61710;BME280;47633;51.494;5.386;2023-03-14T09:02:02;99247.38;;;18.90;44.54
61710;BME280;47633;51.494;5.386;2023-03-14T09:04:29;99255.78;;;18.85;44.54
61710;BME280;47633;51.494;5.386;2023-03-14T09:06:54;99257.59;;;18.85;44.48
61710;BME280;47633;51.494;5.386;2023-03-14T09:09:19;99264.50;;;18.86;44.35
61710;BME280;47633;51.494;5.386;2023-03-14T09:11:45;99281.16;;;18.87;44.42
61710;BME280;47633;51.494;5.386;2023-03-14T09:14:10;99283.16;;;18.84;44.49
61710;BME280;47633;51.494;5.386;2023-03-14T09:16:35;99291.38;;;18.81;44.55
61710;BME280;47633;51.494;5.386;2023-03-14T09:19:00;99296.34;;;18.84;44.36
61710;BME280;47633;51.494;5.386;2023-03-14T09:21:27;99301.47;;;18.86;44.36
61710;BME280;47633;51.494;5.386;2023-03-14T09:23:52;99304.28;;;18.84;44.36
61710;BME280;47633;51.494;5.386;2023-03-14T09:26:18;99321.78;;;18.85;44.27
61710;BME280;47633;51.494;5.386;2023-03-14T09:28:43;99327.03;;;18.85;44.28
61710;BME280;47633;51.494;5.386;2023-03-14T09:31:10;99335.94;;;18.84;44.26
61710;BME280;47633;51.494;5.386;2023-03-14T09:33:37;99351.78;;;18.84;44.36
61710;BME280;47633;51.494;5.386;2023-03-14T09:36:03;99355.91;;;18.87;44.39
61710;BME280;47633;51.494;5.386;2023-03-14T09:38:29;99369.44;;;18.84;44.28
61710;BME280;47633;51.494;5.386;2023-03-14T09:40:55;99397.50;;;18.85;44.38
61710;BME280;47633;51.494;5.386;2023-03-14T09:43:24;99416.63;;;18.87;44.44
61710;BME280;47633;51.494;5.386;2023-03-14T09:45:50;99435.91;;;18.88;44.37
61710;BME280;47633;51.494;5.386;2023-03-14T09:48:21;99436.09;;;18.86;44.31
61710;BME280;47633;51.494;5.386;2023-03-14T09:50:51;99464.97;;;18.88;44.51
61710;BME280;47633;51.494;5.386;2023-03-14T09:53:21;99485.25;;;18.87;44.39
61710;BME280;47633;51.494;5.386;2023-03-14T09:55:50;99498.94;;;18.91;44.33
61710;BME280;47633;51.494;5.386;2023-03-14T09:58:20;99511.34;;;18.90;44.09
61710;BME280;47633;51.494;5.386;2023-03-14T10:00:46;99524.22;;;18.93;43.96
61710;BME280;47633;51.494;5.386;2023-03-14T10:05:38;99528.97;;;18.90;43.79
61710;BME280;47633;51.494;5.386;2023-03-14T10:08:04;99544.66;;;18.91;43.71
61710;BME280;47633;51.494;5.386;2023-03-14T10:10:30;99560.16;;;18.94;43.68
61710;BME280;47633;51.494;5.386;2023-03-14T10:13:10;99570.72;;;18.94;43.63
61710;BME280;47633;51.494;5.386;2023-03-14T10:15:38;99577.81;;;18.94;43.61
61710;BME280;47633;51.494;5.386;2023-03-14T10:18:11;99585.91;;;18.92;43.53
61710;BME280;47633;51.494;5.386;2023-03-14T10:20:43;99605.03;;;18.94;43.54
61710;BME280;47633;51.494;5.386;2023-03-14T10:25:39;99625.34;;;18.94;43.27
61710;BME280;47633;51.494;5.386;2023-03-14T10:28:05;99635.41;;;18.90;43.50
61710;BME280;47633;51.494;5.386;2023-03-14T10:30:44;99653.56;;;18.93;43.42
61710;BME280;47633;51.494;5.386;2023-03-14T10:33:15;99654.38;;;18.94;43.34
61710;BME280;47633;51.494;5.386;2023-03-14T10:35:45;99669.41;;;18.93;43.46
61710;BME280;47633;51.494;5.386;2023-03-14T10:38:16;99674.38;;;18.96;43.34
61710;BME280;47633;51.494;5.386;2023-03-14T10:40:50;99686.72;;;18.96;43.38
61710;BME280;47633;51.494;5.386;2023-03-14T10:43:21;99693.16;;;18.93;43.21
61710;BME280;47633;51.494;5.386;2023-03-14T10:45:54;99702.56;;;18.96;43.30
61710;BME280;47633;51.494;5.386;2023-03-14T10:48:24;99698.44;;;18.93;42.99
61710;BME280;47633;51.494;5.386;2023-03-14T10:50:55;99717.91;;;18.92;43.36
61710;BME280;47633;51.494;5.386;2023-03-14T10:53:22;99729.13;;;18.94;43.16
61710;BME280;47633;51.494;5.386;2023-03-14T10:55:47;99764.47;;;18.93;43.20
61710;BME280;47633;51.494;5.386;2023-03-14T10:58:25;99764.31;;;18.95;43.11
61710;BME280;47633;51.494;5.386;2023-03-14T11:01:09;99775.38;;;18.98;43.09
61710;BME280;47633;51.494;5.386;2023-03-14T11:03:42;99780.66;;;18.98;43.49
61710;BME280;47633;51.494;5.386;2023-03-14T11:06:28;99790.41;;;18.98;43.19
61710;BME280;47633;51.494;5.386;2023-03-14T11:09:06;99791.22;;;18.98;43.42
61710;BME280;47633;51.494;5.386;2023-03-14T11:11:35;99799.28;;;18.97;43.25
61710;BME280;47633;51.494;5.386;2023-03-14T11:16:52;99822.16;;;19.14;42.99
61710;BME280;47633;51.494;5.386;2023-03-14T11:25:12;99853.75;;;19.24;43.31
61710;BME280;47633;51.494;5.386;2023-03-14T11:30:50;99861.38;;;19.27;42.91
61710;BME280;47633;51.494;5.386;2023-03-14T11:33:18;99863.25;;;19.35;43.03
61710;BME280;47633;51.494;5.386;2023-03-14T11:36:06;99886.19;;;19.34;42.90
61710;BME280;47633;51.494;5.386;2023-03-14T11:38:52;99895.41;;;19.30;43.23
61710;BME280;47633;51.494;5.386;2023-03-14T11:41:36;99919.19;;;19.30;43.25
61710;BME280;47633;51.494;5.386;2023-03-14T11:44:10;99933.19;;;19.31;43.12
61710;BME280;47633;51.494;5.386;2023-03-14T11:46:44;99944.78;;;19.30;43.15
61710;BME280;47633;51.494;5.386;2023-03-14T11:49:26;99926.59;;;19.27;43.20
61710;BME280;47633;51.494;5.386;2023-03-14T11:52:05;99930.72;;;19.29;43.20
61710;BME280;47633;51.494;5.386;2023-03-14T11:54:40;99936.00;;;19.29;43.11
61710;BME280;47633;51.494;5.386;2023-03-14T11:57:14;99935.03;;;19.30;43.08
61710;BME280;47633;51.494;5.386;2023-03-14T12:00:04;99964.28;;;19.37;42.88
61710;BME280;47633;51.494;5.386;2023-03-14T12:05:28;99971.09;;;19.39;42.91
61710;BME280;47633;51.494;5.386;2023-03-14T12:10:45;99971.72;;;19.33;43.10
61710;BME280;47633;51.494;5.386;2023-03-14T12:13:13;99985.75;;;19.34;43.26
61710;BME280;47633;51.494;5.386;2023-03-14T12:15:46;99996.16;;;19.35;43.27
61710;BME280;47633;51.494;5.386;2023-03-14T12:18:20;100002.94;;;19.38;43.29
61710;BME280;47633;51.494;5.386;2023-03-14T12:21:12;100012.22;;;19.42;43.39
61710;BME280;47633;51.494;5.386;2023-03-14T12:23:43;100015.88;;;19.41;43.21
61710;BME280;47633;51.494;5.386;2023-03-14T12:26:15;100020.84;;;19.44;43.08
61710;BME280;47633;51.494;5.386;2023-03-14T12:29:31;100022.63;;;19.44;43.26
61710;BME280;47633;51.494;5.386;2023-03-14T12:34:31;100028.81;;;19.52;42.74
61710;BME280;47633;51.494;5.386;2023-03-14T12:42:11;100049.44;;;19.49;43.03
61710;BME280;47633;51.494;5.386;2023-03-14T12:44:42;100041.97;;;19.44;42.50
61710;BME280;47633;51.494;5.386;2023-03-14T12:47:40;100046.41;;;19.44;42.78
61710;BME280;47633;51.494;5.386;2023-03-14T12:50:18;100044.06;;;19.40;43.15
61710;BME280;47633;51.494;5.386;2023-03-14T12:53:05;100058.66;;;19.45;43.06
61710;BME280;47633;51.494;5.386;2023-03-14T12:55:49;100054.50;;;19.42;43.06
61710;BME280;47633;51.494;5.386;2023-03-14T13:01:17;100058.34;;;19.48;43.22
61710;BME280;47633;51.494;5.386;2023-03-14T13:06:12;100059.88;;;19.50;43.16
61710;BME280;47633;51.494;5.386;2023-03-14T13:08:43;100074.72;;;19.51;43.17
61710;BME280;47633;51.494;5.386;2023-03-14T13:11:15;100092.78;;;19.56;43.12
61710;BME280;47633;51.494;5.386;2023-03-14T13:13:47;100088.31;;;19.56;43.00
61710;BME280;47633;51.494;5.386;2023-03-14T13:16:17;100092.63;;;19.57;43.09
61710;BME280;47633;51.494;5.386;2023-03-14T13:18:45;100091.25;;;19.53;42.69
61710;BME280;47633;51.494;5.386;2023-03-14T13:21:19;100103.72;;;19.61;42.49
61710;BME280;47633;51.494;5.386;2023-03-14T13:24:21;100116.31;;;19.67;42.29
61710;BME280;47633;51.494;5.386;2023-03-14T13:26:48;100121.75;;;19.66;42.31
61710;BME280;47633;51.494;5.386;2023-03-14T13:29:25;100123.59;;;19.65;42.51
61710;BME280;47633;51.494;5.386;2023-03-14T13:31:55;100137.16;;;19.70;42.13
61710;BME280;47633;51.494;5.386;2023-03-14T13:34:32;100139.00;;;19.70;42.08
61710;BME280;47633;51.494;5.386;2023-03-14T13:36:58;100140.63;;;19.71;41.85
61710;BME280;47633;51.494;5.386;2023-03-14T13:39:26;100154.19;;;19.68;42.56
61710;BME280;47633;51.494;5.386;2023-03-14T13:41:54;100144.72;;;19.65;42.49
61710;BME280;47633;51.494;5.386;2023-03-14T13:46:50;100168.16;;;19.60;42.50
61710;BME280;47633;51.494;5.386;2023-03-14T13:49:21;100168.97;;;19.61;42.41
61710;BME280;47633;51.494;5.386;2023-03-14T13:51:48;100178.56;;;19.62;42.19